sensor_id;sensor_type;location;lat;lon;timestamp;pressure;altitude;pressure_sealevel;temperature;humidity
46724;BME280;32463;48.298;11.620;2023-04-16T00:00:14;96084.84;;;4.50;100.00
46724;BME280;32463;48.298;11.620;2023-04-16T00:02:40;96082.28;;;4.50;100.00
46724;BME280;32463;48.298;11.620;2023-04-16T00:05:07;96085.09;;;4.47;100.00
46724;BME280;32463;48.298;11.620;2023-04-16T00:07:33;96091.63;;;4.51;100.00
46724;BME280;32463;48.298;11.620;2023-04-16T00:10:00;96089.19;;;4.50;100.00
46724;BME280;32463;48.298;11.620;2023-04-16T00:12:26;96095.13;;;4.50;100.00
46724;BME280;32463;48.298;11.620;2023-04-16T00:14:53;96095.13;;;4.50;100.00
46724;BME280;32463;48.298;11.620;2023-04-16T00:17:19;96102.13;;;4.48;100.00
46724;BME280;32463;48.298;11.620;2023-04-16T00:19:45;96089.44;;;4.47;100.00
46724;BME280;32463;48.298;11.620;2023-04-16T00:22:12;96101.56;;;4.45;100.00
46724;BME280;32463;48.298;11.620;2023-04-16T00:24:39;96099.13;;;4.43;100.00
46724;BME280;32463;48.298;11.620;2023-04-16T00:27:06;96097.88;;;4.37;100.00
46724;BME280;32463;48.298;11.620;2023-04-16T00:29:33;96100.06;;;4.42;100.00
46724;BME280;32463;48.298;11.620;2023-04-16T00:32:00;96094.25;;;4.40;100.00
46724;BME280;32463;48.298;11.620;2023-04-16T00:34:26;96103.56;;;4.41;100.00
46724;BME280;32463;48.298;11.620;2023-04-16T00:36:53;96091.69;;;4.40;100.00
46724;BME280;32463;48.298;11.620;2023-04-16T00:39:19;96086.91;;;4.35;100.00
46724;BME280;32463;48.298;11.620;2023-04-16T00:41:45;96089.59;;;4.34;100.00
46724;BME280;32463;48.298;11.620;2023-04-16T00:44:13;96094.75;;;4.34;100.00
46724;BME280;32463;48.298;11.620;2023-04-16T00:46:40;96087.97;;;4.33;100.00
46724;BME280;32463;48.298;11.620;2023-04-16T00:49:06;96096.38;;;4.35;100.00
46724;BME280;32463;48.298;11.620;2023-04-16T00:51:34;96093.94;;;4.33;100.00
46724;BME280;32463;48.298;11.620;2023-04-16T00:54:02;96093.38;;;4.30;100.00
46724;BME280;32463;48.298;11.620;2023-04-16T00:56:29;96093.25;;;4.31;100.00
46724;BME280;32463;48.298;11.620;2023-04-16T00:58:55;96091.59;;;4.30;100.00
46724;BME280;32463;48.298;11.620;2023-04-16T01:01:22;96091.50;;;4.32;100.00
46724;BME280;32463;48.298;11.620;2023-04-16T01:03:48;96098.25;;;4.33;100.00
46724;BME280;32463;48.298;11.620;2023-04-16T01:06:18;96095.00;;;4.31;100.00
46724;BME280;32463;48.298;11.620;2023-04-16T01:08:45;96095.00;;;4.31;100.00
46724;BME280;32463;48.298;11.620;2023-04-16T01:11:13;96093.13;;;4.33;100.00
46724;BME280;32463;48.298;11.620;2023-04-16T01:13:40;96094.06;;;4.32;100.00
46724;BME280;32463;48.298;11.620;2023-04-16T01:16:08;96101.25;;;4.38;100.00
46724;BME280;32463;48.298;11.620;2023-04-16T01:18:35;96098.94;;;4.35;100.00
46724;BME280;32463;48.298;11.620;2023-04-16T01:21:03;96106.63;;;4.35;100.00
46724;BME280;32463;48.298;11.620;2023-04-16T01:23:30;96098.06;;;4.46;100.00
46724;BME280;32463;48.298;11.620;2023-04-16T01:25:57;96094.25;;;4.40;100.00
46724;BME280;32463;48.298;11.620;2023-04-16T01:28:24;96099.50;;;4.38;100.00
46724;BME280;32463;48.298;11.620;2023-04-16T01:30:51;96097.06;;;4.37;100.00
46724;BME280;32463;48.298;11.620;2023-04-16T01:33:18;96111.28;;;4.41;100.00
46724;BME280;32463;48.298;11.620;2023-04-16T01:35:44;96111.53;;;4.38;100.00
46724;BME280;32463;48.298;11.620;2023-04-16T01:38:11;96111.28;;;4.41;100.00
46724;BME280;32463;48.298;11.620;2023-04-16T01:40:37;96104.50;;;4.40;100.00
46724;BME280;32463;48.298;11.620;2023-04-16T01:43:04;96109.66;;;4.40;100.00
46724;BME280;32463;48.298;11.620;2023-04-16T01:45:31;96108.00;;;4.39;100.00
46724;BME280;32463;48.298;11.620;2023-04-16T01:47:58;96117.22;;;4.42;100.00
46724;BME280;32463;48.298;11.620;2023-04-16T01:50:24;96111.28;;;4.41;100.00
46724;BME280;32463;48.298;11.620;2023-04-16T01:52:51;96110.34;;;4.42;100.00
46724;BME280;32463;48.298;11.620;2023-04-16T01:55:18;96113.16;;;4.39;100.00
46724;BME280;32463;48.298;11.620;2023-04-16T01:57:44;96114.53;;;4.43;100.00
46724;BME280;32463;48.298;11.620;2023-04-16T02:00:11;96117.78;;;4.45;100.00
46724;BME280;32463;48.298;11.620;2023-04-16T02:02:38;96114.28;;;4.46;100.00
46724;BME280;32463;48.298;11.620;2023-04-16T02:05:05;96116.72;;;4.48;100.00
46724;BME280;32463;48.298;11.620;2023-04-16T02:07:31;96112.66;;;4.45;100.00
46724;BME280;32463;48.298;11.620;2023-04-16T02:09:57;96115.91;;;4.47;100.00
46724;BME280;32463;48.298;11.620;2023-04-16T02:12:25;96120.22;;;4.47;100.00
46724;BME280;32463;48.298;11.620;2023-04-16T02:14:52;96122.66;;;4.48;100.00
46724;BME280;32463;48.298;11.620;2023-04-16T02:17:18;96108.56;;;4.43;100.00
46724;BME280;32463;48.298;11.620;2023-04-16T02:19:45;96120.09;;;4.48;100.00
46724;BME280;32463;48.298;11.620;2023-04-16T02:22:11;96109.41;;;4.43;100.00
46724;BME280;32463;48.298;11.620;2023-04-16T02:24:38;96115.66;;;4.50;100.00
46724;BME280;32463;48.298;11.620;2023-04-16T02:27:04;96114.28;;;4.46;100.00
46724;BME280;32463;48.298;11.620;2023-04-16T02:29:31;96113.47;;;4.46;100.00
46724;BME280;32463;48.298;11.620;2023-04-16T02:31:57;96108.56;;;4.43;100.00
46724;BME280;32463;48.298;11.620;2023-04-16T02:34:24;96118.72;;;4.44;100.00
46724;BME280;32463;48.298;11.620;2023-04-16T02:36:50;96116.59;;;4.49;100.00
46724;BME280;32463;48.298;11.620;2023-04-16T02:39:18;96110.09;;;4.45;100.00
46724;BME280;32463;48.298;11.620;2023-04-16T02:41:44;96119.16;;;4.49;100.00
46724;BME280;32463;48.298;11.620;2023-04-16T02:44:11;96126.75;;;4.51;100.00
46724;BME280;32463;48.298;11.620;2023-04-16T02:46:37;96129.19;;;4.52;100.00
46724;BME280;32463;48.298;11.620;2023-04-16T02:49:04;96133.50;;;4.52;100.00
46724;BME280;32463;48.298;11.620;2023-04-16T02:51:30;96132.13;;;4.48;100.00
46724;BME280;32463;48.298;11.620;2023-04-16T02:53:57;96131.06;;;4.50;100.00
46724;BME280;32463;48.298;11.620;2023-04-16T02:56:23;96133.63;;;4.50;100.00
46724;BME280;32463;48.298;11.620;2023-04-16T02:58:50;96131.06;;;4.50;100.00
46724;BME280;32463;48.298;11.620;2023-04-16T03:01:16;96145.41;;;4.53;100.00
46724;BME280;32463;48.298;11.620;2023-04-16T03:03:43;96139.69;;;4.49;100.00
46724;BME280;32463;48.298;11.620;2023-04-16T03:06:09;96137.13;;;4.49;100.00
46724;BME280;32463;48.298;11.620;2023-04-16T03:08:36;96129.44;;;4.49;100.00
46724;BME280;32463;48.298;11.620;2023-04-16T03:11:03;96134.31;;;4.52;100.00
46724;BME280;32463;48.298;11.620;2023-04-16T03:13:29;96130.38;;;4.48;100.00
46724;BME280;32463;48.298;11.620;2023-04-16T03:15:56;96142.94;;;4.51;100.00
46724;BME280;32463;48.298;11.620;2023-04-16T03:18:22;96141.06;;;4.53;100.00
46724;BME280;32463;48.298;11.620;2023-04-16T03:20:52;96139.44;;;4.52;100.00
46724;BME280;32463;48.298;11.620;2023-04-16T03:23:19;96150.53;;;4.53;100.00
46724;BME280;32463;48.298;11.620;2023-04-16T03:25:45;96140.94;;;4.55;100.00
46724;BME280;32463;48.298;11.620;2023-04-16T03:28:12;96145.41;;;4.53;100.00
46724;BME280;32463;48.298;11.620;2023-04-16T03:30:39;96144.59;;;4.52;100.00
46724;BME280;32463;48.298;11.620;2023-04-16T03:33:05;96151.34;;;4.53;100.00
46724;BME280;32463;48.298;11.620;2023-04-16T03:35:32;96146.47;;;4.50;100.00
46724;BME280;32463;48.298;11.620;2023-04-16T03:37:58;96140.50;;;4.50;100.00
46724;BME280;32463;48.298;11.620;2023-04-16T03:40:25;96144.94;;;4.48;100.00
46724;BME280;32463;48.298;11.620;2023-04-16T03:42:51;96153.47;;;4.48;100.00
46724;BME280;32463;48.298;11.620;2023-04-16T03:45:18;96148.72;;;4.44;100.00
46724;BME280;32463;48.298;11.620;2023-04-16T03:47:45;96147.19;;;4.41;100.00
46724;BME280;32463;48.298;11.620;2023-04-16T03:50:16;96157.34;;;4.43;100.00
46724;BME280;32463;48.298;11.620;2023-04-16T03:52:43;96159.91;;;4.43;100.00
46724;BME280;32463;48.298;11.620;2023-04-16T03:55:11;96163.28;;;4.43;100.00
46724;BME280;32463;48.298;11.620;2023-04-16T03:57:38;96161.66;;;4.42;100.00
46724;BME280;32463;48.298;11.620;2023-04-16T04:00:04;96162.59;;;4.41;100.00
46724;BME280;32463;48.298;11.620;2023-04-16T04:02:31;96157.47;;;4.41;100.00
46724;BME280;32463;48.298;11.620;2023-04-16T04:04:57;96158.16;;;4.43;100.00
46724;BME280;32463;48.298;11.620;2023-04-16T04:07:24;96159.09;;;4.42;100.00
46724;BME280;32463;48.298;11.620;2023-04-16T04:09:50;96167.63;;;4.43;100.00
46724;BME280;32463;48.298;11.620;2023-04-16T04:12:17;96162.59;;;4.41;100.00
46724;BME280;32463;48.298;11.620;2023-04-16T04:14:43;96171.94;;;4.42;100.00
46724;BME280;32463;48.298;11.620;2023-04-16T04:17:10;96178.00;;;4.41;100.00
46724;BME280;32463;48.298;11.620;2023-04-16T04:19:36;96176.38;;;4.40;100.00
46724;BME280;32463;48.298;11.620;2023-04-16T04:22:03;96164.22;;;4.42;100.00
46724;BME280;32463;48.298;11.620;2023-04-16T04:24:29;96173.81;;;4.40;100.00
46724;BME280;32463;48.298;11.620;2023-04-16T04:26:55;96178.81;;;4.42;100.00
46724;BME280;32463;48.298;11.620;2023-04-16T04:29:22;96175.69;;;4.38;100.00
46724;BME280;32463;48.298;11.620;2023-04-16T04:31:49;96170.09;;;4.33;100.00
46724;BME280;32463;48.298;11.620;2023-04-16T04:34:15;96172.66;;;4.33;100.00
46724;BME280;32463;48.298;11.620;2023-04-16T04:36:42;96176.84;;;4.34;100.00
46724;BME280;32463;48.298;11.620;2023-04-16T04:39:08;96184.44;;;4.35;100.00
46724;BME280;32463;48.298;11.620;2023-04-16T04:41:34;96177.69;;;4.34;100.00
46724;BME280;32463;48.298;11.620;2023-04-16T04:44:01;96187.44;;;4.40;100.00
46724;BME280;32463;48.298;11.620;2023-04-16T04:46:27;96187.69;;;4.37;100.00
46724;BME280;32463;48.298;11.620;2023-04-16T04:48:54;96183.88;;;4.32;100.00
46724;BME280;32463;48.298;11.620;2023-04-16T04:51:20;96182.81;;;4.34;100.00
46724;BME280;32463;48.298;11.620;2023-04-16T04:53:47;96191.88;;;4.38;100.00
46724;BME280;32463;48.298;11.620;2023-04-16T04:56:13;96196.91;;;4.40;100.00
46724;BME280;32463;48.298;11.620;2023-04-16T04:58:40;96205.53;;;4.39;100.00
46724;BME280;32463;48.298;11.620;2023-04-16T05:01:07;96198.78;;;4.38;100.00
46724;BME280;32463;48.298;11.620;2023-04-16T05:03:33;96197.72;;;4.40;100.00
46724;BME280;32463;48.298;11.620;2023-04-16T05:06:00;96201.31;;;4.49;100.00
46724;BME280;32463;48.298;11.620;2023-04-16T05:08:26;96200.72;;;4.46;100.00
46724;BME280;32463;48.298;11.620;2023-04-16T05:10:53;96198.03;;;4.47;100.00
46724;BME280;32463;48.298;11.620;2023-04-16T05:13:19;96211.78;;;4.57;100.00
46724;BME280;32463;48.298;11.620;2023-04-16T05:15:46;96209.19;;;4.57;100.00
46724;BME280;32463;48.298;11.620;2023-04-16T05:18:12;96210.00;;;4.58;100.00
46724;BME280;32463;48.298;11.620;2023-04-16T05:20:39;96213.25;;;4.60;100.00
46724;BME280;32463;48.298;11.620;2023-04-16T05:23:05;96210.25;;;4.55;100.00
46724;BME280;32463;48.298;11.620;2023-04-16T05:25:31;96218.94;;;4.63;100.00
46724;BME280;32463;48.298;11.620;2023-04-16T05:27:58;96223.03;;;4.66;100.00
46724;BME280;32463;48.298;11.620;2023-04-16T05:30:24;96222.44;;;4.62;100.00
46724;BME280;32463;48.298;11.620;2023-04-16T05:32:51;96229.41;;;4.71;100.00
46724;BME280;32463;48.298;11.620;2023-04-16T05:35:17;96217.31;;;4.62;100.00
46724;BME280;32463;48.298;11.620;2023-04-16T05:37:44;96228.72;;;4.69;100.00
46724;BME280;32463;48.298;11.620;2023-04-16T05:40:12;96225.22;;;4.70;100.00
46724;BME280;32463;48.298;11.620;2023-04-16T05:42:39;96230.22;;;4.72;100.00
46724;BME280;32463;48.298;11.620;2023-04-16T05:45:06;96233.94;;;4.79;100.00
46724;BME280;32463;48.298;11.620;2023-04-16T05:47:32;96230.31;;;4.82;100.00
46724;BME280;32463;48.298;11.620;2023-04-16T05:49:58;96232.88;;;4.82;100.00
46724;BME280;32463;48.298;11.620;2023-04-16T05:52:25;96239.13;;;4.89;100.00
46724;BME280;32463;48.298;11.620;2023-04-16T05:54:51;96230.47;;;4.90;100.00
46724;BME280;32463;48.298;11.620;2023-04-16T05:57:18;96236.16;;;4.93;100.00
46724;BME280;32463;48.298;11.620;2023-04-16T05:59:44;96237.41;;;4.99;100.00
46724;BME280;32463;48.298;11.620;2023-04-16T06:02:11;96237.66;;;4.96;100.00
46724;BME280;32463;48.298;11.620;2023-04-16T06:04:37;96237.88;;;5.04;100.00
46724;BME280;32463;48.298;11.620;2023-04-16T06:07:04;96238.75;;;5.14;100.00
46724;BME280;32463;48.298;11.620;2023-04-16T06:09:30;96236.84;;;5.16;100.00
46724;BME280;32463;48.298;11.620;2023-04-16T06:11:56;96236.28;;;5.13;100.00
46724;BME280;32463;48.298;11.620;2023-04-16T06:14:23;96248.13;;;5.04;100.00
46724;BME280;32463;48.298;11.620;2023-04-16T06:16:49;96247.06;;;5.06;100.00
46724;BME280;32463;48.298;11.620;2023-04-16T06:19:16;96247.41;;;5.23;100.00
46724;BME280;32463;48.298;11.620;2023-04-16T06:21:42;96249.00;;;5.14;100.00
46724;BME280;32463;48.298;11.620;2023-04-16T06:24:09;96251.75;;;5.22;100.00
46724;BME280;32463;48.298;11.620;2023-04-16T06:26:37;96248.22;;;5.23;100.00
46724;BME280;32463;48.298;11.620;2023-04-16T06:29:04;96258.00;;;5.29;100.00
46724;BME280;32463;48.298;11.620;2023-04-16T06:31:30;96257.16;;;5.19;100.00
46724;BME280;32463;48.298;11.620;2023-04-16T06:33:57;96250.41;;;5.18;100.00
46724;BME280;32463;48.298;11.620;2023-04-16T06:36:23;96255.81;;;5.25;100.00
46724;BME280;32463;48.298;11.620;2023-04-16T06:38:51;96255.09;;;5.44;100.00
46724;BME280;32463;48.298;11.620;2023-04-16T06:41:18;96265.72;;;5.60;100.00
46724;BME280;32463;48.298;11.620;2023-04-16T06:43:44;96264.34;;;5.56;100.00
46724;BME280;32463;48.298;11.620;2023-04-16T06:46:11;96261.13;;;5.63;100.00
46724;BME280;32463;48.298;11.620;2023-04-16T06:48:38;96273.88;;;5.65;100.00
46724;BME280;32463;48.298;11.620;2023-04-16T06:51:04;96264.13;;;5.68;100.00
46724;BME280;32463;48.298;11.620;2023-04-16T06:53:31;96261.94;;;5.64;100.00
46724;BME280;32463;48.298;11.620;2023-04-16T06:55:57;96272.09;;;5.65;100.00
46724;BME280;32463;48.298;11.620;2023-04-16T06:58:24;96276.81;;;5.60;100.00
46724;BME280;32463;48.298;11.620;2023-04-16T07:00:51;96280.84;;;5.53;100.00
46724;BME280;32463;48.298;11.620;2023-04-16T07:03:17;96287.34;;;5.48;100.00
46724;BME280;32463;48.298;11.620;2023-04-16T07:05:44;96289.03;;;5.37;100.00
46724;BME280;32463;48.298;11.620;2023-04-16T07:08:10;96285.09;;;5.33;100.00
46724;BME280;32463;48.298;11.620;2023-04-16T07:10:37;96290.78;;;5.37;100.00
46724;BME280;32463;48.298;11.620;2023-04-16T07:13:03;96285.41;;;5.40;100.00
46724;BME280;32463;48.298;11.620;2023-04-16T07:15:30;96275.94;;;5.40;100.00
46724;BME280;32463;48.298;11.620;2023-04-16T07:17:56;96275.38;;;5.37;100.00
46724;BME280;32463;48.298;11.620;2023-04-16T07:20:23;96275.97;;;5.50;100.00
46724;BME280;32463;48.298;11.620;2023-04-16T07:22:50;96277.31;;;5.45;100.00
46724;BME280;32463;48.298;11.620;2023-04-16T07:25:16;96283.03;;;5.58;100.00
46724;BME280;32463;48.298;11.620;2023-04-16T07:27:43;96286.03;;;5.63;100.00
46724;BME280;32463;48.298;11.620;2023-04-16T07:30:09;96280.63;;;5.66;100.00
46724;BME280;32463;48.298;11.620;2023-04-16T07:32:36;96279.88;;;5.75;100.00
46724;BME280;32463;48.298;11.620;2023-04-16T07:35:02;96280.19;;;5.91;100.00
46724;BME280;32463;48.298;11.620;2023-04-16T07:37:29;96282.56;;;5.83;100.00
46724;BME280;32463;48.298;11.620;2023-04-16T07:39:56;96279.44;;;6.00;100.00
46724;BME280;32463;48.298;11.620;2023-04-16T07:42:22;96291.59;;;5.98;100.00
46724;BME280;32463;48.298;11.620;2023-04-16T07:44:49;96292.41;;;5.99;100.00
46724;BME280;32463;48.298;11.620;2023-04-16T07:47:15;96285.41;;;6.11;100.00
46724;BME280;32463;48.298;11.620;2023-04-16T07:49:41;96293.28;;;6.19;100.00
46724;BME280;32463;48.298;11.620;2023-04-16T07:52:08;96298.41;;;6.19;100.00
46724;BME280;32463;48.298;11.620;2023-04-16T07:54:35;96291.13;;;6.24;100.00
46724;BME280;32463;48.298;11.620;2023-04-16T07:57:01;96287.88;;;6.31;100.00
46724;BME280;32463;48.298;11.620;2023-04-16T07:59:28;96297.09;;;6.34;100.00
46724;BME280;32463;48.298;11.620;2023-04-16T08:01:54;96294.66;;;6.42;100.00
46724;BME280;32463;48.298;11.620;2023-04-16T08:04:20;96294.94;;;6.39;100.00
46724;BME280;32463;48.298;11.620;2023-04-16T08:06:50;96302.00;;;6.37;100.00
46724;BME280;32463;48.298;11.620;2023-04-16T08:09:18;96301.44;;;6.43;100.00
46724;BME280;32463;48.298;11.620;2023-04-16T08:11:45;96302.25;;;6.34;100.00
46724;BME280;32463;48.298;11.620;2023-04-16T08:14:13;96313.09;;;6.47;100.00
46724;BME280;32463;48.298;11.620;2023-04-16T08:16:40;96300.50;;;6.44;100.00
46724;BME280;32463;48.298;11.620;2023-04-16T08:19:06;96313.50;;;6.33;100.00
46724;BME280;32463;48.298;11.620;2023-04-16T08:21:33;96311.19;;;6.30;100.00
46724;BME280;32463;48.298;11.620;2023-04-16T08:23:59;96317.69;;;6.34;100.00
46724;BME280;32463;48.298;11.620;2023-04-16T08:26:26;96311.50;;;6.56;100.00
46724;BME280;32463;48.298;11.620;2023-04-16T08:28:52;96315.00;;;6.45;100.00
46724;BME280;32463;48.298;11.620;2023-04-16T08:31:18;96313.53;;;6.62;100.00
46724;BME280;32463;48.298;11.620;2023-04-16T08:33:45;96314.50;;;6.70;100.00
46724;BME280;32463;48.298;11.620;2023-04-16T08:36:11;96318.81;;;6.80;100.00
46724;BME280;32463;48.298;11.620;2023-04-16T08:38:38;96320.44;;;7.09;100.00
46724;BME280;32463;48.298;11.620;2023-04-16T08:41:06;96321.50;;;7.07;100.00
46724;BME280;32463;48.298;11.620;2023-04-16T08:43:36;96315.53;;;7.16;100.00
46724;BME280;32463;48.298;11.620;2023-04-16T08:46:06;96321.50;;;7.26;100.00
46724;BME280;32463;48.298;11.620;2023-04-16T08:48:34;96324.09;;;7.26;100.00
46724;BME280;32463;48.298;11.620;2023-04-16T08:51:08;96319.19;;;7.33;100.00
46724;BME280;32463;48.298;11.620;2023-04-16T08:53:43;96320.66;;;7.35;100.00
46724;BME280;32463;48.298;11.620;2023-04-16T08:56:14;96324.50;;;7.31;100.00
46724;BME280;32463;48.298;11.620;2023-04-16T08:58:46;96312.00;;;7.27;100.00
46724;BME280;32463;48.298;11.620;2023-04-16T09:01:13;96331.56;;;7.29;100.00
46724;BME280;32463;48.298;11.620;2023-04-16T09:03:45;96330.94;;;7.55;100.00
46724;BME280;32463;48.298;11.620;2023-04-16T09:06:12;96327.56;;;7.91;100.00
46724;BME280;32463;48.298;11.620;2023-04-16T09:08:39;96336.00;;;7.93;100.00
46724;BME280;32463;48.298;11.620;2023-04-16T09:11:06;96345.09;;;8.25;100.00
46724;BME280;32463;48.298;11.620;2023-04-16T09:13:32;96338.09;;;8.07;100.00
46724;BME280;32463;48.298;11.620;2023-04-16T09:15:59;96336.19;;;8.09;100.00
46724;BME280;32463;48.298;11.620;2023-04-16T09:18:26;96342.09;;;7.92;100.00
46724;BME280;32463;48.298;11.620;2023-04-16T09:20:53;96342.78;;;8.22;100.00
46724;BME280;32463;48.298;11.620;2023-04-16T09:23:20;96341.66;;;8.34;100.00
46724;BME280;32463;48.298;11.620;2023-04-16T09:25:46;96347.19;;;8.11;100.00
46724;BME280;32463;48.298;11.620;2023-04-16T09:28:45;96347.84;;;8.14;100.00
46724;BME280;32463;48.298;11.620;2023-04-16T09:31:13;96344.13;;;8.53;100.00
46724;BME280;32463;48.298;11.620;2023-04-16T09:33:41;96349.78;;;8.57;100.00
46724;BME280;32463;48.298;11.620;2023-04-16T09:36:09;96337.50;;;8.68;100.00
46724;BME280;32463;48.298;11.620;2023-04-16T09:38:49;96348.44;;;8.98;100.00
46724;BME280;32463;48.298;11.620;2023-04-16T09:41:16;96349.97;;;8.91;100.00
46724;BME280;32463;48.298;11.620;2023-04-16T09:43:56;96355.50;;;9.83;100.00
46724;BME280;32463;48.298;11.620;2023-04-16T09:46:30;96344.16;;;10.10;100.00
46724;BME280;32463;48.298;11.620;2023-04-16T09:48:57;96354.38;;;9.77;100.00
46724;BME280;32463;48.298;11.620;2023-04-16T09:51:23;96348.72;;;9.82;100.00
46724;BME280;32463;48.298;11.620;2023-04-16T09:53:51;96349.94;;;9.96;100.00
46724;BME280;32463;48.298;11.620;2023-04-16T09:56:22;96347.44;;;10.54;100.00
46724;BME280;32463;48.298;11.620;2023-04-16T09:58:49;96349.41;;;10.60;100.00
46724;BME280;32463;48.298;11.620;2023-04-16T10:01:17;96354.00;;;9.98;100.00
46724;BME280;32463;48.298;11.620;2023-04-16T10:03:48;96343.84;;;10.47;100.00
46724;BME280;32463;48.298;11.620;2023-04-16T10:06:19;96356.09;;;10.29;100.00
46724;BME280;32463;48.298;11.620;2023-04-16T10:08:52;96345.44;;;10.98;100.00
46724;BME280;32463;48.298;11.620;2023-04-16T10:11:21;96352.06;;;11.50;100.00
46724;BME280;32463;48.298;11.620;2023-04-16T10:13:48;96351.88;;;11.67;100.00
46724;BME280;32463;48.298;11.620;2023-04-16T10:16:15;96342.97;;;11.54;100.00
46724;BME280;32463;48.298;11.620;2023-04-16T10:18:43;96354.28;;;10.63;100.00
46724;BME280;32463;48.298;11.620;2023-04-16T10:21:10;96349.59;;;10.25;100.00
46724;BME280;32463;48.298;11.620;2023-04-16T10:23:38;96353.00;;;10.67;100.00
46724;BME280;32463;48.298;11.620;2023-04-16T10:26:05;96359.47;;;10.63;100.00
46724;BME280;32463;48.298;11.620;2023-04-16T10:28:32;96360.66;;;10.93;100.00
46724;BME280;32463;48.298;11.620;2023-04-16T10:31:01;96355.84;;;10.48;100.00
46724;BME280;32463;48.298;11.620;2023-04-16T10:33:31;96352.84;;;10.27;100.00
46724;BME280;32463;48.298;11.620;2023-04-16T10:36:12;96356.84;;;9.87;100.00
46724;BME280;32463;48.298;11.620;2023-04-16T10:38:48;96356.94;;;10.03;100.00
46724;BME280;32463;48.298;11.620;2023-04-16T10:41:15;96362.66;;;10.49;100.00
46724;BME280;32463;48.298;11.620;2023-04-16T10:43:44;96347.25;;;10.13;100.00
46724;BME280;32463;48.298;11.620;2023-04-16T10:48:43;96358.53;;;10.30;100.00
46724;BME280;32463;48.298;11.620;2023-04-16T10:51:34;96353.41;;;10.38;100.00
46724;BME280;32463;48.298;11.620;2023-04-16T10:56:33;96362.59;;;10.33;100.00
46724;BME280;32463;48.298;11.620;2023-04-16T10:59:03;96347.34;;;9.96;100.00
46724;BME280;32463;48.298;11.620;2023-04-16T11:01:37;96362.94;;;9.78;100.00
46724;BME280;32463;48.298;11.620;2023-04-16T11:09:59;96337.34;;;9.49;100.00
46724;BME280;32463;48.298;11.620;2023-04-16T11:15:07;96340.56;;;9.25;100.00
46724;BME280;32463;48.298;11.620;2023-04-16T11:17:46;96341.81;;;9.39;100.00
46724;BME280;32463;48.298;11.620;2023-04-16T11:20:23;96365.94;;;9.65;100.00
46724;BME280;32463;48.298;11.620;2023-04-16T11:22:52;96374.09;;;9.78;100.00
46724;BME280;32463;48.298;11.620;2023-04-16T11:27:47;96347.47;;;10.20;100.00
46724;BME280;32463;48.298;11.620;2023-04-16T11:30:14;96345.59;;;10.04;100.00
46724;BME280;32463;48.298;11.620;2023-04-16T11:32:42;96362.69;;;9.89;100.00
46724;BME280;32463;48.298;11.620;2023-04-16T11:35:15;96365.28;;;9.63;100.00
46724;BME280;32463;48.298;11.620;2023-04-16T11:37:43;96349.06;;;9.35;100.00
46724;BME280;32463;48.298;11.620;2023-04-16T11:40:10;96352.78;;;9.59;100.00
46724;BME280;32463;48.298;11.620;2023-04-16T11:42:38;96354.00;;;9.47;100.00
46724;BME280;32463;48.298;11.620;2023-04-16T11:45:07;96368.09;;;9.52;100.00
46724;BME280;32463;48.298;11.620;2023-04-16T11:47:50;96361.41;;;9.41;100.00
46724;BME280;32463;48.298;11.620;2023-04-16T11:50:22;96366.81;;;9.74;100.00
46724;BME280;32463;48.298;11.620;2023-04-16T11:52:50;96378.25;;;9.97;100.00
46724;BME280;32463;48.298;11.620;2023-04-16T11:55:18;96375.41;;;10.08;100.00
46724;BME280;32463;48.298;11.620;2023-04-16T11:57:45;96354.44;;;10.20;100.00
46724;BME280;32463;48.298;11.620;2023-04-16T12:00:12;96371.69;;;10.45;100.00
46724;BME280;32463;48.298;11.620;2023-04-16T12:02:48;96354.16;;;10.31;100.00
46724;BME280;32463;48.298;11.620;2023-04-16T12:05:35;96389.13;;;10.27;100.00
46724;BME280;32463;48.298;11.620;2023-04-16T12:08:07;96363.22;;;10.27;100.00
46724;BME280;32463;48.298;11.620;2023-04-16T12:10:36;96376.56;;;10.48;100.00
46724;BME280;32463;48.298;11.620;2023-04-16T12:13:13;96368.91;;;10.04;100.00
46724;BME280;32463;48.298;11.620;2023-04-16T12:15:53;96361.47;;;10.09;100.00
46724;BME280;32463;48.298;11.620;2023-04-16T12:18:24;96366.22;;;9.88;100.00
46724;BME280;32463;48.298;11.620;2023-04-16T12:20:51;96370.75;;;9.86;100.00
46724;BME280;32463;48.298;11.620;2023-04-16T12:23:27;96367.16;;;10.05;100.00
46724;BME280;32463;48.298;11.620;2023-04-16T12:25:55;96377.88;;;10.18;100.00
46724;BME280;32463;48.298;11.620;2023-04-16T12:28:34;96384.63;;;10.11;100.00
46724;BME280;32463;48.298;11.620;2023-04-16T12:31:03;96388.19;;;10.36;100.00
46724;BME280;32463;48.298;11.620;2023-04-16T12:33:30;96391.50;;;10.54;100.00
46724;BME280;32463;48.298;11.620;2023-04-16T12:35:57;96379.88;;;10.66;100.00
46724;BME280;32463;48.298;11.620;2023-04-16T12:38:23;96384.13;;;10.84;100.00
46724;BME280;32463;48.298;11.620;2023-04-16T12:40:51;96390.34;;;11.15;100.00
46724;BME280;32463;48.298;11.620;2023-04-16T12:43:21;96391.50;;;10.54;100.00
46724;BME280;32463;48.298;11.620;2023-04-16T12:45:47;96388.38;;;11.01;100.00
46724;BME280;32463;48.298;11.620;2023-04-16T12:48:14;96391.28;;;11.06;100.00
46724;BME280;32463;48.298;11.620;2023-04-16T12:50:40;96389.38;;;11.16;100.00
46724;BME280;32463;48.298;11.620;2023-04-16T12:53:08;96380.97;;;11.55;100.00
46724;BME280;32463;48.298;11.620;2023-04-16T12:55:34;96391.31;;;11.63;99.58
46724;BME280;32463;48.298;11.620;2023-04-16T12:58:01;96386.97;;;11.55;99.58
46724;BME280;32463;48.298;11.620;2023-04-16T13:00:27;96381.56;;;11.97;94.46
46724;BME280;32463;48.298;11.620;2023-04-16T13:02:56;96379.97;;;11.31;100.00
46724;BME280;32463;48.298;11.620;2023-04-16T13:05:23;96388.09;;;11.28;100.00